Atlantic - Newfoundland: Past 24 Hour Conditions

 

J.A. Douglas McCurdy Sydney Airport

02:00 AM ADT 01 August 2014
This table is a summary of hourly weather conditions for the past 24 hours.
Date / Time
(ADT)
Wind(knots) Conditions Visibility(km) Pressure(kPa) Air tempC) Relative humidity(%) Dew pointC) Humidex
01 August 2014
2:00 SSW 5 Cloudy 13 102.4 20 95 19 *
1:00 SSW 5 Cloudy 13 102.4 20 95 19 *
0:00 SSW 7 Cloudy 16 102.4 20 95 19 *
31 July 2014
23:00 SSW 7 Cloudy 16 102.4 20 93 19 *
22:00 SSW 5 Cloudy 16 102.4 20 93 19 *
21:00 S 7 Cloudy 16 102.4 20 91 19 27
20:00 S 10 gust 16 Cloudy 24 102.3 21 90 19 28
19:00 S 10 Cloudy 24 102.3 22 86 20 30
18:00 SW 10 gust 18 Cloudy 24 102.3 23 83 20 31
17:00 SW 14 gust 20 Cloudy 24 102.3 23 83 20 31
16:00 SSW 15 gust 22 Cloudy 24 102.3 24 81 21 32
15:00 SSW 14 gust 21 Cloudy 24 102.2 24 80 21 33
14:00 SSW 13 gust 25 Cloudy 24 102.2 23 85 21 32
13:00 S 14 gust 21 Cloudy 24 102.2 24 79 21 32
12:00 SW 13 Cloudy 24 102.2 25 80 21 33
11:00 SSW 12 gust 17 Cloudy 24 102.2 23 89 21 32
10:00 S 10 Cloudy 16 102.2 22 94 21 31
9:00 SSW 8 Light Rainshower 6 102.2 22 97 21 30
8:00 S 10 gust 16 Light Rainshower 1 102.2 21 98 21 29
7:00 S 9 Fog 10 102.2 20 96 20 28
6:00 S 8 Fog 6 102.1 21 98 20 29
5:00 S 6 Fog 6 102.1 20 95 20 28
4:00 SSW 6 Fog 6 102.1 20 96 20 27
3:00 SSW 6 Fog 3 102.1 20 95 20 28
2:00 SW 9 Fog 3 102.1 20 96 20 28
 
Map of Atlantic - Newfoundland marine weather areas Southwestern Grand Banks - 44138 Banquereau - 44139 Tail of the Bank - 44140 Nickerson Bank - 44251 Northeast Burgeo Bank - 44255 Blanc-Sablon Airport Cap Whittle Chevery Natashquan Airport Heath Point Miscou Island Grand Étang Ingonish Beach North Mountain St.Paul Island J.A. Douglas McCurdy Sydney Airport Charlottetown Airport East Point North Cape Argentia Bonavista Burgeo Cape Race Corner Brook Daniel's Harbour Englee Ferolle Point La Scie Port aux Basques Rocky Harbour Sagona Island St. Anthony Airport St. John's Int'l Airport St. Lawrence Stephenville Airport Twillingate Winterland Wreckhouse Cartwright Airport Mary's Harbour Grates Cove Pool's Island Marticot Island Long Pond Îles de la Madeleine Airport
Legend: buoyBuoy land stationLand Station